Time;durP1;ratioP1;P1;durP2;ratioP2;P2;SDS_P1;SDS_P2;PMS_P1;PMS_P2;Temp;Humidity;BMP_temperature;BMP_pressure;BME280_temperature;BME280_humidity;BME280_pressure;Samples;Min_cycle;Max_cycle;Signal;HPM_P1;HPM_P2
2023/11/19 00:00:11;;;;;;;10.60;6.30;;;;;;;6.16;43.82;100668.38;108065;1255;61487;-68
2023/11/19 00:02:39;;;;;;;10.60;6.20;;;;;;;6.09;43.64;100669.85;108145;1254;60072;-67
2023/11/19 00:05:09;;;;;;;9.60;6.40;;;;;;;6.08;43.91;100672.48;108092;1257;73734;-68
2023/11/19 00:07:36;;;;;;;11.00;6.40;;;;;;;6.11;43.41;100669.13;108138;1253;70459;-68
2023/11/19 00:10:06;;;;;;;9.30;5.60;;;;;;;6.08;43.63;100665.14;108157;1253;73012;-67
2023/11/19 00:12:33;;;;;;;9.20;6.00;;;;;;;6.10;43.55;100663.73;108088;1254;60510;-67
2023/11/19 00:15:00;;;;;;;8.80;5.50;;;;;;;6.27;43.51;100665.83;108117;1254;60410;-67
2023/11/19 00:17:27;;;;;;;10.40;6.60;;;;;;;6.39;43.45;100667.61;108066;1253;73547;-67
2023/11/19 00:19:53;;;;;;;11.20;6.40;;;;;;;6.36;43.26;100664.69;108055;1254;70345;-67
2023/11/19 00:22:21;;;;;;;12.60;6.40;;;;;;;6.36;43.25;100665.38;108076;1254;71514;-67
2023/11/19 00:24:48;;;;;;;10.10;6.20;;;;;;;6.35;43.31;100665.73;108135;1254;60395;-67
2023/11/19 00:27:15;;;;;;;13.00;7.00;;;;;;;6.37;43.26;100668.15;108108;1254;60351;-67
2023/11/19 00:29:44;;;;;;;8.90;5.70;;;;;;;6.35;43.00;100667.14;108083;1254;72487;-67
2023/11/19 00:32:11;;;;;;;9.60;6.00;;;;;;;6.30;43.03;100663.86;108073;1257;70151;-67
2023/11/19 00:34:39;;;;;;;9.20;5.90;;;;;;;6.25;42.87;100663.23;108096;1255;71042;-67
2023/11/19 00:37:06;;;;;;;11.80;6.50;;;;;;;6.08;43.46;100662.89;108092;1254;61161;-68
2023/11/19 00:39:33;;;;;;;11.60;6.80;;;;;;;6.11;43.22;100660.41;108078;1254;60133;-67
2023/11/19 00:41:59;;;;;;;10.20;6.60;;;;;;;6.13;43.21;100662.14;108102;1253;73809;-67
2023/11/19 00:44:26;;;;;;;12.00;7.20;;;;;;;6.17;43.21;100664.00;108124;1254;70371;-67
2023/11/19 00:46:53;;;;;;;11.60;6.70;;;;;;;6.19;43.36;100663.12;108078;1255;73122;-67
2023/11/19 00:49:20;;;;;;;11.60;6.80;;;;;;;6.28;43.15;100662.85;108112;1253;61090;-66
2023/11/19 00:51:46;;;;;;;13.90;7.00;;;;;;;6.32;43.23;100663.15;108128;1254;60309;-67
2023/11/19 00:54:13;;;;;;;11.60;6.40;;;;;;;6.31;43.45;100663.69;108116;1256;59568;-67
2023/11/19 00:56:39;;;;;;;9.50;6.00;;;;;;;6.30;43.48;100663.88;108103;1253;70132;-67
2023/11/19 00:59:06;;;;;;;10.00;6.20;;;;;;;6.38;42.95;100664.14;108096;1253;72596;-67
2023/11/19 01:01:33;;;;;;;9.30;6.10;;;;;;;6.36;43.01;100657.88;108101;1256;61152;-67
2023/11/19 01:03:59;;;;;;;11.90;6.00;;;;;;;6.40;42.91;100657.30;108086;1253;60317;-67
2023/11/19 01:06:29;;;;;;;9.10;5.60;;;;;;;6.38;43.11;100653.84;108115;1254;73766;-66
2023/11/19 01:08:59;;;;;;;9.80;6.70;;;;;;;6.40;42.71;100652.77;108048;1259;70065;-66
2023/11/19 01:11:26;;;;;;;12.50;5.90;;;;;;;6.35;42.66;100654.58;108262;1254;72518;-67
2023/11/19 01:13:53;;;;;;;12.10;5.90;;;;;;;6.44;42.58;100653.95;108153;1254;61833;-67
2023/11/19 01:16:20;;;;;;;10.30;6.20;;;;;;;6.49;42.57;100652.67;108090;1259;60447;-66
2023/11/19 01:18:48;;;;;;;10.50;6.00;;;;;;;6.52;42.52;100647.93;108141;1254;72563;-66
2023/11/19 01:21:15;;;;;;;9.80;6.20;;;;;;;6.58;42.50;100644.71;108136;1254;70251;-67
2023/11/19 01:23:45;;;;;;;9.70;6.30;;;;;;;6.55;42.41;100641.60;108110;1254;72668;-67
2023/11/19 01:26:12;;;;;;;9.70;6.20;;;;;;;6.55;42.18;100638.98;108189;1254;60575;-67
2023/11/19 01:28:39;;;;;;;11.30;6.70;;;;;;;6.50;42.70;100637.83;108174;1254;60316;-67
2023/11/19 01:31:17;;;;;;;9.60;5.70;;;;;;;6.52;42.35;100634.32;108094;1255;73859;-67
2023/11/19 01:33:44;;;;;;;13.30;6.70;;;;;;;6.45;42.50;100634.73;108240;1254;70334;-67
2023/11/19 01:36:13;;;;;;;11.60;6.80;;;;;;;6.47;42.47;100634.38;108187;1253;73182;-67
2023/11/19 01:38:40;;;;;;;10.30;6.70;;;;;;;6.56;42.50;100632.52;108140;1254;60429;-66
2023/11/19 01:41:07;;;;;;;8.50;6.00;;;;;;;6.58;42.32;100628.14;108210;1254;60291;-67
2023/11/19 01:43:38;;;;;;;12.20;6.20;;;;;;;6.52;42.57;100624.55;108118;1257;74512;-67
2023/11/19 01:46:04;;;;;;;;;;;;;;;6.44;42.77;100621.52;108108;1253;69055;-68
2023/11/19 01:48:32;;;;;;;11.90;7.20;;;;;;;6.30;43.40;100617.48;108002;1254;72985;-67
2023/11/19 01:50:59;;;;;;;10.10;6.10;;;;;;;6.33;43.14;100614.13;108059;1254;59810;-67
2023/11/19 01:53:29;;;;;;;10.10;6.50;;;;;;;6.37;43.13;100614.09;108018;1254;60764;-67
2023/11/19 01:55:56;;;;;;;8.70;5.80;;;;;;;6.53;43.18;100617.91;108087;1254;73501;-67
2023/11/19 01:58:23;;;;;;;10.60;6.00;;;;;;;6.63;42.73;100614.65;108090;1254;70293;-67
2023/11/19 02:00:50;;;;;;;12.10;7.40;;;;;;;6.68;42.69;100616.33;108057;1254;72725;-67
2023/11/19 02:03:17;;;;;;;11.20;6.80;;;;;;;6.71;42.74;100622.39;108103;1257;60378;-67
2023/11/19 02:05:43;;;;;;;9.80;6.20;;;;;;;6.77;42.33;100621.61;107819;1253;60417;-66
2023/11/19 02:08:10;;;;;;;10.70;7.20;;;;;;;6.69;42.36;100619.45;107744;1254;60396;-67
2023/11/19 02:10:37;;;;;;;9.50;6.00;;;;;;;6.62;42.37;100612.39;107816;1254;69022;-66
2023/11/19 02:13:06;;;;;;;10.80;6.70;;;;;;;6.65;42.58;100613.75;108000;1254;72647;-66
2023/11/19 02:15:33;;;;;;;11.60;6.50;;;;;;;6.66;42.61;100611.98;107877;1254;61691;-67
2023/11/19 02:18:22;;;;;;;11.60;6.40;;;;;;;6.75;42.45;100613.77;108025;1254;60374;-67
2023/11/19 02:20:50;;;;;;;9.30;5.90;;;;;;;6.70;42.11;100616.11;107838;1254;72510;-67
2023/11/19 02:23:18;;;;;;;11.90;7.00;;;;;;;6.63;42.51;100615.67;108045;1254;69139;-67
2023/11/19 02:25:49;;;;;;;9.00;6.50;;;;;;;6.73;42.57;100612.77;108043;1254;72696;-67
2023/11/19 02:28:16;;;;;;;10.30;6.30;;;;;;;6.79;42.36;100611.45;108072;1254;61248;-66
2023/11/19 02:30:43;;;;;;;11.60;6.00;;;;;;;6.71;42.51;100608.27;107885;1259;60394;-66
2023/11/19 02:33:09;;;;;;;10.20;6.20;;;;;;;6.73;42.64;100607.88;107868;1254;73708;-67
2023/11/19 02:35:36;;;;;;;12.20;6.30;;;;;;;6.72;42.54;100606.14;108038;1254;70444;-67
2023/11/19 02:38:06;;;;;;;9.20;5.60;;;;;;;6.77;42.59;100601.54;107982;1254;60246;-67
2023/11/19 02:40:33;;;;;;;11.40;6.50;;;;;;;6.69;42.60;100600.77;108035;1254;60968;-67
2023/11/19 02:42:59;;;;;;;10.30;6.70;;;;;;;6.49;42.79;100602.27;107968;1254;60330;-67
2023/11/19 02:45:27;;;;;;;10.00;6.00;;;;;;;6.35;43.02;100605.23;107907;1254;72609;-68
2023/11/19 02:47:57;;;;;;;12.50;6.70;;;;;;;6.34;43.23;100608.90;107981;1254;69297;-67
2023/11/19 02:50:24;;;;;;;8.60;5.80;;;;;;;6.33;43.30;100608.38;108003;1254;71401;-67
2023/11/19 02:52:58;;;;;;;8.80;5.60;;;;;;;6.46;43.19;100612.77;108007;1254;60416;-66
2023/11/19 02:55:27;;;;;;;9.00;5.50;;;;;;;6.53;42.85;100600.80;107886;1254;60467;-67
2023/11/19 02:57:56;;;;;;;13.10;6.90;;;;;;;6.42;43.24;100592.77;107990;1254;73986;-66
2023/11/19 03:00:34;;;;;;;13.20;6.90;;;;;;;6.47;43.13;100594.77;107901;1254;68514;-67
2023/11/19 03:03:09;;;;;;;13.80;7.40;;;;;;;6.51;42.78;100592.83;108079;1257;72916;-66
2023/11/19 03:05:36;;;;;;;13.30;7.10;;;;;;;6.43;42.96;100586.28;108101;1253;60272;-68
2023/11/19 03:08:03;;;;;;;10.20;6.50;;;;;;;6.38;43.08;100580.06;108254;1254;60160;-67
2023/11/19 03:10:29;;;;;;;11.70;6.60;;;;;;;6.33;43.06;100574.90;108004;1254;72828;-67
2023/11/19 03:12:57;;;;;;;11.50;6.30;;;;;;;6.16;43.67;100574.94;108130;1254;70183;-67
2023/11/19 03:15:23;;;;;;;9.30;5.60;;;;;;;6.33;43.29;100571.59;108194;1254;72673;-67
2023/11/19 03:17:50;;;;;;;10.50;6.40;;;;;;;6.49;43.09;100562.66;108078;1253;60269;-68
2023/11/19 03:20:16;;;;;;;10.20;6.50;;;;;;;6.37;43.01;100558.11;108110;1253;60189;-67
2023/11/19 03:22:44;;;;;;;10.00;6.10;;;;;;;6.44;43.00;100558.71;108101;1254;72866;-67
2023/11/19 03:25:10;;;;;;;11.00;6.80;;;;;;;6.54;42.69;100553.88;108053;1253;60148;-68
2023/11/19 03:27:38;;;;;;;9.80;6.00;;;;;;;6.51;42.84;100551.82;108049;1253;73757;-67
2023/11/19 03:30:06;;;;;;;11.30;5.80;;;;;;;6.36;42.88;100553.08;108085;1253;59738;-67
2023/11/19 03:32:35;;;;;;;11.80;6.50;;;;;;;6.29;43.12;100548.10;108085;1253;60432;-64
2023/11/19 03:35:04;;;;;;;10.10;6.40;;;;;;;6.30;42.80;100544.25;108083;1254;73819;-66
2023/11/19 03:37:32;;;;;;;12.50;6.20;;;;;;;6.32;42.78;100547.70;108099;1254;70310;-66
2023/11/19 03:39:59;;;;;;;13.00;6.30;;;;;;;6.31;43.09;100551.39;108124;1254;73282;-66
2023/11/19 03:42:32;;;;;;;9.80;6.20;;;;;;;6.32;42.93;100553.98;108083;1253;61067;-66
2023/11/19 03:44:59;;;;;;;15.10;7.80;;;;;;;6.36;43.03;100551.50;108204;1253;60148;-67
2023/11/19 03:47:26;;;;;;;23.40;9.40;;;;;;;6.33;42.91;100549.77;108113;1258;73923;-66
2023/11/19 03:49:53;;;;;;;31.60;10.90;;;;;;;6.39;42.88;100543.10;108087;1253;70131;-67
2023/11/19 03:52:19;;;;;;;25.10;11.00;;;;;;;6.37;42.94;100542.77;108110;1254;72429;-67
2023/11/19 03:54:47;;;;;;;26.50;10.60;;;;;;;6.25;42.83;100542.39;108089;1253;61168;-67
2023/11/19 03:57:15;;;;;;;14.20;7.50;;;;;;;6.28;42.93;100540.95;108164;1253;60406;-67
2023/11/19 03:59:42;;;;;;;17.80;8.50;;;;;;;6.21;43.16;100539.48;108100;1253;72666;-67
2023/11/19 04:02:08;;;;;;;21.70;9.20;;;;;;;6.29;43.13;100540.41;108064;1253;60319;-67
2023/11/19 04:04:35;;;;;;;15.90;8.50;;;;;;;6.26;43.15;100540.63;108071;1253;71361;-66
2023/11/19 04:07:03;;;;;;;14.10;7.30;;;;;;;6.31;42.96;100540.40;108000;1253;61001;-66
2023/11/19 04:09:30;;;;;;;12.20;6.20;;;;;;;6.31;43.12;100540.23;107967;1253;60377;-66
2023/11/19 04:11:57;;;;;;;12.50;7.40;;;;;;;6.23;42.80;100534.05;108051;1253;73656;-66
2023/11/19 04:14:23;;;;;;;11.40;6.80;;;;;;;6.31;42.31;100529.41;108077;1254;69166;-66
2023/11/19 04:16:51;;;;;;;10.50;6.10;;;;;;;6.21;42.33;100529.38;108098;1253;60531;-67
2023/11/19 04:19:18;;;;;;;11.40;6.90;;;;;;;6.20;42.33;100529.73;108064;1253;59845;-66
2023/11/19 04:21:45;;;;;;;11.20;6.60;;;;;;;6.29;42.28;100530.83;108081;1253;60353;-67
2023/11/19 04:24:12;;;;;;;10.30;6.40;;;;;;;6.41;42.36;100529.10;108011;1253;72429;-67
2023/11/19 04:26:44;;;;;;;11.60;6.70;;;;;;;6.41;42.35;100526.83;108065;1253;70318;-67
2023/11/19 04:29:15;;;;;;;11.30;6.30;;;;;;;6.32;41.79;100519.46;108048;1253;71411;-67
2023/11/19 04:31:41;;;;;;;13.10;6.80;;;;;;;6.34;41.83;100514.02;108034;1253;60490;-66
2023/11/19 04:34:08;;;;;;;10.50;6.60;;;;;;;6.40;41.74;100513.42;108094;1253;60335;-67
2023/11/19 04:36:35;;;;;;;12.30;7.40;;;;;;;6.36;41.81;100515.92;108083;1254;73673;-67
2023/11/19 04:39:02;;;;;;;11.60;7.30;;;;;;;6.46;41.83;100520.48;108068;1253;59279;-67
2023/11/19 04:41:29;;;;;;;10.30;6.10;;;;;;;6.41;41.27;100517.77;108061;1253;72558;-66
2023/11/19 04:43:55;;;;;;;11.30;7.00;;;;;;;6.51;41.41;100523.74;108107;1253;60250;-68
2023/11/19 04:46:23;;;;;;;9.70;6.00;;;;;;;6.37;41.52;100523.05;108080;1253;60020;-67
2023/11/19 04:48:50;;;;;;;8.80;6.00;;;;;;;6.18;41.69;100519.30;108046;1257;73640;-67
2023/11/19 04:51:17;;;;;;;10.50;6.30;;;;;;;6.15;41.53;100520.73;108081;1253;70316;-67
2023/11/19 04:53:43;;;;;;;10.20;6.20;;;;;;;6.22;41.42;100527.42;107986;1253;72380;-68
2023/11/19 04:56:11;;;;;;;13.00;8.00;;;;;;;6.24;41.50;100531.08;108085;1253;61130;-68
2023/11/19 04:58:37;;;;;;;8.80;6.00;;;;;;;6.21;40.88;100536.52;108131;1256;60157;-67
2023/11/19 05:01:04;;;;;;;10.00;6.20;;;;;;;6.29;41.18;100533.27;108145;1253;73003;-68
2023/11/19 05:03:31;;;;;;;12.70;5.30;;;;;;;6.28;40.63;100535.38;108086;1253;70111;-67
2023/11/19 05:05:58;;;;;;;9.50;5.60;;;;;;;6.27;40.77;100541.66;108062;1253;72865;-67
2023/11/19 05:08:25;;;;;;;7.90;5.00;;;;;;;6.34;40.87;100536.52;108052;1256;61187;-67
2023/11/19 05:10:51;;;;;;;9.70;5.50;;;;;;;6.43;39.80;100540.59;108030;1256;60312;-67
2023/11/19 05:13:18;;;;;;;7.60;5.50;;;;;;;6.54;39.88;100538.00;108066;1253;73577;-67
2023/11/19 05:15:45;;;;;;;9.40;5.40;;;;;;;6.62;39.85;100533.18;108082;1253;70099;-68
2023/11/19 05:18:11;;;;;;;10.20;6.30;;;;;;;6.62;39.81;100530.55;108044;1253;60386;-67
2023/11/19 05:20:38;;;;;;;11.90;7.30;;;;;;;6.61;39.59;100523.77;108006;1253;60534;-67
2023/11/19 05:23:04;;;;;;;8.10;5.30;;;;;;;6.58;39.46;100524.34;108068;1253;60851;-67
2023/11/19 05:25:31;;;;;;;13.20;7.10;;;;;;;6.45;38.87;100518.40;108061;1253;73817;-68
2023/11/19 05:27:58;;;;;;;21.90;12.10;;;;;;;6.36;39.27;100515.05;108079;1253;70292;-66
2023/11/19 05:30:24;;;;;;;24.00;12.40;;;;;;;6.40;39.51;100515.35;108101;1254;60344;-66
2023/11/19 05:32:51;;;;;;;11.10;6.20;;;;;;;6.45;39.32;100513.17;108106;1253;60271;-67
2023/11/19 05:35:17;;;;;;;9.20;5.60;;;;;;;6.42;39.48;100514.95;108101;1253;60454;-67
2023/11/19 05:37:44;;;;;;;11.00;6.20;;;;;;;6.42;38.82;100517.05;108116;1253;73876;-67
2023/11/19 05:40:17;;;;;;;12.70;6.90;;;;;;;6.42;38.88;100515.48;108078;1254;71055;-67
2023/11/19 05:42:43;;;;;;;8.10;5.50;;;;;;;6.33;38.92;100516.47;108053;1253;71422;-67
2023/11/19 05:45:11;;;;;;;9.10;5.50;;;;;;;6.44;38.77;100518.26;108042;1253;60392;-67
2023/11/19 05:47:38;;;;;;;8.20;5.30;;;;;;;6.39;38.65;100516.73;108094;1253;60313;-67
2023/11/19 05:50:06;;;;;;;9.50;5.40;;;;;;;6.41;38.78;100522.84;108050;1253;73769;-67
2023/11/19 05:52:33;;;;;;;8.30;5.10;;;;;;;6.57;39.43;100520.86;108025;1256;70123;-67
2023/11/19 05:55:04;;;;;;;9.90;5.30;;;;;;;6.61;38.37;100517.50;108061;1253;72648;-67
2023/11/19 05:57:31;;;;;;;8.50;5.20;;;;;;;6.60;38.52;100513.14;107939;1253;61205;-67
2023/11/19 05:59:59;;;;;;;36.70;13.20;;;;;;;6.41;38.63;100515.14;108050;1253;60339;-68
2023/11/19 06:02:27;;;;;;;15.00;7.80;;;;;;;6.38;38.49;100509.95;108051;1253;73607;-67
2023/11/19 06:04:53;;;;;;;67.10;24.60;;;;;;;6.48;38.61;100511.91;108119;1253;70163;-68
2023/11/19 06:07:20;;;;;;;15.10;8.40;;;;;;;6.45;38.56;100510.73;108084;1254;72601;-68
2023/11/19 06:09:47;;;;;;;11.90;7.00;;;;;;;6.50;38.44;100506.13;108102;1253;60911;-67
2023/11/19 06:12:14;;;;;;;9.20;5.70;;;;;;;6.46;38.32;100499.73;108078;1253;60256;-67
2023/11/19 06:16:41;;;;;;;9.70;6.00;;;;;;;4.86;41.34;100502.46;104940;1289;600259;-67
2023/11/19 06:19:09;;;;;;;9.40;5.70;;;;;;;5.95;38.86;100496.20;107322;1264;59688;-67
2023/11/19 06:21:37;;;;;;;9.40;6.30;;;;;;;6.18;38.56;100495.23;107381;1264;59235;-67
2023/11/19 06:24:05;;;;;;;7.20;4.20;;;;;;;6.01;38.27;100494.73;107354;1264;71983;-67
2023/11/19 06:26:32;;;;;;;9.10;5.20;;;;;;;5.90;38.24;100493.64;107506;1260;70067;-69
2023/11/19 06:29:00;;;;;;;8.70;5.00;;;;;;;5.94;38.37;100494.46;107533;1261;72508;-67
2023/11/19 06:31:27;;;;;;;7.10;5.10;;;;;;;5.90;38.32;100492.94;107433;1260;200721;-67
2023/11/19 06:33:55;;;;;;;18.90;9.60;;;;;;;5.87;38.31;100483.40;107647;1259;59265;-67
2023/11/19 06:36:22;;;;;;;229.40;86.10;;;;;;;5.77;38.16;100485.42;107574;1258;71226;-67
2023/11/19 06:38:50;;;;;;;121.20;21.40;;;;;;;5.79;38.37;100486.62;107977;1256;69113;-67
2023/11/19 06:41:17;;;;;;;32.90;10.60;;;;;;;5.79;38.32;100484.89;108002;1256;72697;-67
2023/11/19 06:43:45;;;;;;;19.70;8.90;;;;;;;5.83;38.69;100479.77;107961;1257;60214;-67
2023/11/19 06:46:16;;;;;;;13.20;7.00;;;;;;;5.89;38.77;100478.31;107912;1257;60016;-66
2023/11/19 06:48:44;;;;;;;16.10;6.80;;;;;;;5.98;38.44;100479.80;107922;1257;73009;-66
2023/11/19 06:51:12;;;;;;;11.60;5.90;;;;;;;5.94;38.13;100474.80;107964;1257;68715;-67
2023/11/19 06:53:40;;;;;;;15.90;7.80;;;;;;;5.87;38.06;100471.88;107917;1257;70468;-66
2023/11/19 06:56:18;;;;;;;12.60;6.60;;;;;;;5.89;38.39;100466.46;107939;1255;59739;-67
2023/11/19 06:58:47;;;;;;;11.30;6.10;;;;;;;5.92;38.20;100456.15;107841;1257;59977;-67
2023/11/19 07:01:16;;;;;;;7.80;5.00;;;;;;;5.97;38.55;100452.45;107680;1262;73093;-66
2023/11/19 07:03:46;;;;;;;62.90;30.70;;;;;;;6.02;38.62;100453.58;107778;1257;72521;-67
2023/11/19 07:06:14;;;;;;;21.60;10.50;;;;;;;6.24;38.26;100459.06;107829;1257;72203;-67
2023/11/19 07:08:44;;;;;;;13.00;5.70;;;;;;;6.40;37.97;100455.87;107934;1257;60905;-66
2023/11/19 07:11:13;;;;;;;8.80;4.80;;;;;;;6.38;37.91;100451.70;107959;1256;60004;-66
2023/11/19 07:13:41;;;;;;;22.20;8.90;;;;;;;6.60;37.56;100451.92;107801;1256;73065;-67
2023/11/19 07:16:11;;;;;;;29.90;11.60;;;;;;;6.73;37.43;100448.21;107808;1257;69012;-67
2023/11/19 07:18:39;;;;;;;22.40;11.30;;;;;;;6.82;37.53;100450.68;107800;1257;71694;-67
2023/11/19 07:21:10;;;;;;;32.20;19.50;;;;;;;6.85;37.29;100452.55;107777;1256;59589;-67
2023/11/19 07:23:38;;;;;;;20.50;12.30;;;;;;;7.03;37.20;100456.80;107762;1256;59673;-67
2023/11/19 07:26:08;;;;;;;11.40;8.00;;;;;;;7.01;36.96;100455.06;107841;1259;71862;-67
2023/11/19 07:28:35;;;;;;;24.40;11.80;;;;;;;6.97;37.19;100457.23;107766;1256;70164;-67
2023/11/19 07:31:03;;;;;;;25.90;13.30;;;;;;;6.95;37.04;100454.48;107770;1256;72426;-66
2023/11/19 07:33:31;;;;;;;15.20;9.70;;;;;;;7.01;37.10;100453.17;107855;1256;59830;-66
2023/11/19 07:35:58;;;;;;;15.40;8.50;;;;;;;7.10;37.18;100453.17;107772;1257;59987;-67
2023/11/19 07:38:26;;;;;;;8.50;5.50;;;;;;;7.29;36.58;100450.73;107791;1257;73135;-66
2023/11/19 07:40:53;;;;;;;26.80;7.80;;;;;;;7.36;36.11;100447.29;107932;1256;70122;-67
2023/11/19 07:43:23;;;;;;;18.50;6.30;;;;;;;7.22;35.56;100445.45;107831;1257;72680;-67
2023/11/19 07:45:51;;;;;;;16.10;5.80;;;;;;;7.08;35.98;100438.88;107783;1257;59713;-67
2023/11/19 07:48:23;;;;;;;9.90;4.80;;;;;;;7.20;36.45;100430.46;107799;1257;59593;-67
2023/11/19 07:50:50;;;;;;;7.70;4.70;;;;;;;7.23;36.33;100437.41;107907;1257;72631;-66
2023/11/19 07:53:18;;;;;;;7.40;4.70;;;;;;;7.35;36.27;100444.52;107809;1257;69935;-67
2023/11/19 07:55:46;;;;;;;16.20;6.20;;;;;;;7.38;36.17;100437.98;107785;1257;71479;-67
2023/11/19 07:58:13;;;;;;;14.00;6.10;;;;;;;7.41;35.71;100435.48;107773;1256;59692;-67
2023/11/19 08:00:41;;;;;;;8.50;5.00;;;;;;;7.30;36.43;100438.66;107803;1257;59278;-67
2023/11/19 08:03:08;;;;;;;10.70;5.00;;;;;;;7.26;37.14;100442.58;107785;1255;73114;-67
2023/11/19 08:05:36;;;;;;;7.40;4.70;;;;;;;7.50;36.96;100447.71;107898;1256;69005;-67
2023/11/19 08:08:04;;;;;;;6.50;4.30;;;;;;;7.72;36.53;100445.19;107792;1257;71801;-67
2023/11/19 08:10:33;;;;;;;25.30;9.00;;;;;;;7.70;36.04;100445.58;107784;1257;60332;-66
2023/11/19 08:13:01;;;;;;;54.50;12.50;;;;;;;7.61;36.15;100442.61;107819;1256;59475;-67
2023/11/19 08:15:28;;;;;;;77.00;15.90;;;;;;;7.53;36.00;100435.42;108067;1253;73099;-67
2023/11/19 08:17:59;;;;;;;27.80;8.20;;;;;;;7.43;36.49;100434.05;108131;1254;69536;-67
2023/11/19 08:20:27;;;;;;;13.30;6.10;;;;;;;7.44;36.56;100433.67;108061;1254;70360;-67
2023/11/19 08:22:54;;;;;;;7.60;4.30;;;;;;;7.50;36.54;100426.22;108079;1253;63056;-67
2023/11/19 08:25:23;;;;;;;8.50;4.00;;;;;;;7.49;36.36;100425.91;108099;1252;59467;-67
2023/11/19 08:27:50;;;;;;;8.60;4.80;;;;;;;7.56;37.10;100429.08;108078;1254;73200;-67
2023/11/19 08:30:18;;;;;;;7.90;4.70;;;;;;;7.66;36.21;100422.95;108071;1254;70295;-67
2023/11/19 08:32:46;;;;;;;11.30;5.10;;;;;;;7.50;36.67;100417.84;108060;1253;72727;-67
2023/11/19 08:35:13;;;;;;;27.20;7.30;;;;;;;7.40;36.61;100408.60;108065;1257;59500;-67
2023/11/19 08:37:42;;;;;;;15.90;6.00;;;;;;;7.22;36.69;100405.79;108085;1254;59401;-67
2023/11/19 08:40:10;;;;;;;10.00;4.80;;;;;;;7.28;36.98;100399.75;108142;1252;73072;-67
2023/11/19 08:42:39;;;;;;;12.80;5.20;;;;;;;7.49;36.66;100396.05;108152;1253;70025;-67
2023/11/19 08:45:10;;;;;;;10.50;4.20;;;;;;;7.72;36.42;100385.95;108084;1252;72608;-67
2023/11/19 08:47:37;;;;;;;8.30;4.20;;;;;;;7.90;36.93;100380.84;108086;1253;59631;-67
2023/11/19 08:50:05;;;;;;;10.00;4.40;;;;;;;8.06;36.36;100376.09;108056;1254;60042;-67
2023/11/19 08:52:33;;;;;;;8.10;4.10;;;;;;;8.08;36.18;100377.98;108153;1253;73046;-67
2023/11/19 08:55:02;;;;;;;6.20;3.80;;;;;;;8.14;36.28;100376.09;108093;1253;69218;-67
2023/11/19 08:57:30;;;;;;;5.40;4.20;;;;;;;8.15;36.14;100376.42;108031;1253;72531;-67
2023/11/19 08:59:57;;;;;;;14.90;6.50;;;;;;;8.06;35.75;100376.48;108122;1253;61296;-67
2023/11/19 09:02:25;;;;;;;13.80;5.60;;;;;;;8.06;35.62;100373.48;107896;1254;59835;-67
2023/11/19 09:04:52;;;;;;;18.60;7.80;;;;;;;8.05;35.35;100376.48;108055;1253;72965;-67
2023/11/19 09:07:21;;;;;;;10.90;5.20;;;;;;;8.00;35.74;100377.98;108027;1256;72119;-67
2023/11/19 09:09:49;;;;;;;11.80;6.00;;;;;;;8.14;35.55;100374.85;108060;1253;72736;-67
2023/11/19 09:12:16;;;;;;;6.80;4.40;;;;;;;8.29;36.15;100369.98;108048;1254;59631;-67
2023/11/19 09:14:45;;;;;;;7.70;4.80;;;;;;;8.44;35.79;100359.86;108111;1252;59985;-67
2023/11/19 09:17:13;;;;;;;6.30;4.40;;;;;;;8.45;35.36;100354.40;108066;1253;72592;-67
2023/11/19 09:19:41;;;;;;;7.20;4.20;;;;;;;8.45;35.25;100351.77;108062;1254;68815;-67
2023/11/19 09:22:09;;;;;;;9.80;5.00;;;;;;;8.54;35.00;100356.45;108047;1254;72905;-67
2023/11/19 09:24:36;;;;;;;33.90;20.00;;;;;;;8.49;34.84;100352.73;108045;1254;59474;-67
2023/11/19 09:27:05;;;;;;;15.60;8.70;;;;;;;8.39;34.99;100349.98;108097;1253;60060;-67
2023/11/19 09:29:32;;;;;;;11.90;7.30;;;;;;;8.41;35.08;100349.58;107831;1253;73357;-67
2023/11/19 09:32:00;;;;;;;30.10;8.00;;;;;;;8.44;34.97;100349.89;108048;1253;69131;-67
2023/11/19 09:34:31;;;;;;;14.60;6.00;;;;;;;8.28;34.62;100351.45;108071;1254;72987;-67
2023/11/19 09:36:59;;;;;;;14.80;8.30;;;;;;;8.35;34.89;100350.05;108106;1254;59570;-68
2023/11/19 09:39:26;;;;;;;17.20;7.70;;;;;;;8.36;35.12;100339.38;108073;1254;60011;-67
2023/11/19 09:41:54;;;;;;;16.20;7.40;;;;;;;8.26;35.26;100341.38;107873;1254;73242;-68
2023/11/19 09:44:21;;;;;;;9.20;5.70;;;;;;;8.35;36.04;100337.84;107873;1253;70059;-67
2023/11/19 09:46:49;;;;;;;10.50;7.30;;;;;;;8.49;35.78;100334.54;108024;1253;72065;-67
2023/11/19 09:49:18;;;;;;;10.40;6.60;;;;;;;8.52;35.55;100338.30;108027;1254;59227;-67
2023/11/19 09:52:02;;;;;;;8.30;5.20;;;;;;;8.44;35.16;100341.28;108054;1254;59551;-67
2023/11/19 09:54:30;;;;;;;7.50;5.10;;;;;;;8.20;35.49;100344.13;107829;1254;72809;-66
2023/11/19 09:57:02;;;;;;;9.90;6.20;;;;;;;8.26;36.26;100350.11;108104;1253;69958;-67
2023/11/19 09:59:31;;;;;;;8.10;4.70;;;;;;;8.26;35.30;100345.56;108031;1255;72763;-67
2023/11/19 10:01:59;;;;;;;13.90;8.00;;;;;;;8.18;35.14;100348.89;108158;1256;59714;-67
2023/11/19 10:04:27;;;;;;;29.50;16.10;;;;;;;7.94;35.07;100349.44;108185;1253;60479;-66
2023/11/19 10:06:54;;;;;;;11.10;7.00;;;;;;;7.85;35.35;100352.64;108024;1254;71747;-67
2023/11/19 10:09:22;;;;;;;24.20;7.40;;;;;;;7.78;35.41;100356.80;108130;1252;70015;-66
2023/11/19 10:11:50;;;;;;;11.30;5.20;;;;;;;7.70;35.61;100356.10;107973;1259;72686;-67
2023/11/19 10:14:22;;;;;;;11.90;5.80;;;;;;;7.88;35.76;100354.85;108173;1254;59502;-67
2023/11/19 10:16:50;;;;;;;7.90;5.90;;;;;;;8.05;36.28;100353.58;108174;1254;60158;-66
2023/11/19 10:19:21;;;;;;;7.60;4.30;;;;;;;7.94;35.93;100351.23;108081;1253;73080;-66
2023/11/19 10:21:48;;;;;;;6.90;4.50;;;;;;;7.87;35.48;100352.25;108191;1253;70323;-66
2023/11/19 10:24:16;;;;;;;8.40;3.70;;;;;;;7.96;35.49;100348.19;108037;1256;72748;-67
2023/11/19 10:26:47;;;;;;;7.20;4.30;;;;;;;7.95;35.04;100347.50;108124;1253;60474;-67
2023/11/19 10:29:14;;;;;;;8.30;5.30;;;;;;;8.02;35.81;100343.52;108088;1252;60185;-67
2023/11/19 10:31:49;;;;;;;10.40;5.40;;;;;;;8.01;35.76;100340.89;108056;1252;72603;-67
2023/11/19 10:34:27;;;;;;;7.80;4.30;;;;;;;8.07;35.51;100335.69;108033;1252;70158;-67
2023/11/19 10:36:54;;;;;;;9.70;6.30;;;;;;;8.11;36.17;100337.16;108056;1254;72718;-67
2023/11/19 10:39:23;;;;;;;8.20;4.90;;;;;;;8.11;35.58;100338.91;108064;1253;60418;-67
2023/11/19 10:41:51;;;;;;;5.80;4.10;;;;;;;8.02;35.32;100331.77;108053;1255;60310;-67
2023/11/19 10:44:33;;;;;;;9.80;4.80;;;;;;;8.03;35.18;100329.13;108096;1252;73451;-67
2023/11/19 10:47:02;;;;;;;19.10;8.50;;;;;;;7.96;35.09;100324.94;108150;1254;70301;-67
2023/11/19 10:49:30;;;;;;;10.60;5.60;;;;;;;7.98;35.14;100323.13;108061;1254;71188;-67
2023/11/19 10:51:58;;;;;;;12.70;5.40;;;;;;;7.92;35.82;100319.78;108070;1254;60383;-67
2023/11/19 10:54:25;;;;;;;8.20;5.00;;;;;;;7.88;35.73;100316.21;108063;1253;60618;-67
2023/11/19 10:56:58;;;;;;;7.00;4.70;;;;;;;8.03;35.57;100306.59;108061;1254;73970;-67
2023/11/19 10:59:28;;;;;;;8.60;4.20;;;;;;;7.90;35.03;100303.56;108278;1254;70294;-67
2023/11/19 11:02:03;;;;;;;9.10;4.50;;;;;;;7.86;34.88;100299.64;108048;1259;71419;-67
2023/11/19 11:04:31;;;;;;;15.40;7.70;;;;;;;7.77;35.35;100296.34;107988;1252;60578;-67
2023/11/19 11:06:59;;;;;;;20.80;11.60;;;;;;;7.64;35.36;100294.36;107985;1253;60192;-67
2023/11/19 11:09:27;;;;;;;10.50;5.60;;;;;;;7.47;35.28;100293.34;108125;1253;73351;-67
2023/11/19 11:11:57;;;;;;;25.10;7.90;;;;;;;7.43;35.63;100291.70;108100;1254;70311;-67
2023/11/19 11:14:24;;;;;;;11.00;4.70;;;;;;;7.41;35.49;100286.83;107824;1260;71483;-67
2023/11/19 11:16:52;;;;;;;14.00;6.30;;;;;;;7.28;36.02;100282.58;107853;1254;60405;-66
2023/11/19 11:19:20;;;;;;;12.50;5.90;;;;;;;7.36;36.49;100285.02;108052;1253;60315;-67
2023/11/19 11:21:50;;;;;;;8.50;5.00;;;;;;;7.37;36.36;100283.42;107979;1255;72559;-69
2023/11/19 11:24:37;;;;;;;8.90;5.10;;;;;;;7.54;36.25;100277.83;108061;1253;68900;-67